Flight Track Log - Related Links

Times and Time Zones

All times are in EDT time to prevent confusion due to time zone crossing. See the SWA286 flight status page for this flight to view local times or setup timezone preferences in your user account.

Time Position Orientation Groundspeed Altitude Reporting Facility
EDT Latitude Longitude Course Direction KTS MPH feet Rate Location/Type
Sun 04:39:50 PM 36.1000 -86.6833 277° West 160 184 1,500  Level Nashville TRACON
Sun 04:41:03 PM 36.1000 -86.7667 270° West 219 252 3,900 2,590 Climbing Nashville TRACON
Sun 04:42:09 PM 36.1333 -86.8500 296° West 286 329 7,500 3,174 Climbing Nashville TRACON
Sun 04:43:21 PM 36.1617 -86.9508 289° West 286 329 11,200 3,182 Climbing Memphis Center
Sun 04:44:21 PM 36.2042 -87.0569 296° West 309 356 14,500 3,150 Climbing Memphis Center
Sun 04:45:00 PM 36.2943 -87.4425 277° West  Level FlightAware Approximate
Sun 04:45:21 PM 36.2444 -87.1608 296° West 322 371 17,500  Level Memphis Center
Sun 04:46:21 PM 36.2786 -87.2753 290° West 342 394 20,100 2,550 Climbing Memphis Center
Sun 04:47:21 PM 36.2983 -87.3983 281° West 358 412 22,600 2,350 Climbing Memphis Center
Sun 04:48:21 PM 36.3242 -87.5261 284° West 374 430 24,800 2,150 Climbing Memphis Center
Sun 04:49:21 PM 36.3792 -87.6453 300° West 380 437 26,900 1,900 Climbing Memphis Center
Sun 04:50:21 PM 36.4339 -87.7672 299° West 405 466 28,600 1,700 Climbing Memphis Center
Sun 04:51:21 PM 36.4861 -87.8792 300° West 411 473 30,300 1,800 Climbing Memphis Center
Sun 04:52:21 PM 36.5406 -88.0067 298° West 411 473 32,200 2,000 Climbing Memphis Center
Sun 04:53:21 PM 36.6036 -88.1392 301° West 411 473 34,300 1,750 Climbing Memphis Center
Sun 04:54:21 PM 36.6494 -88.2619 295° West 405 466 35,700 1,200 Climbing Memphis Center
Sun 04:55:21 PM 36.6725 -88.3986 282° West 399 459 36,700 1,050 Climbing Memphis Center
Sun 04:56:21 PM 36.6956 -88.5353 282° West 399 459 37,800 650 Climbing Memphis Center
Sun 04:57:21 PM 36.7183 -88.6719 282° West 409 471 38,000 100 Climbing Memphis Center
Sun 04:58:21 PM 36.7389 -88.8139 280° West 414 476 38,000  Level Memphis Center
Sun 04:59:21 PM 36.7614 -88.9533 281° West 414 476 38,000  Level Memphis Center
Sun 05:00:21 PM 36.7836 -89.0928 281° West 414 476 38,000  Level Memphis Center
Sun 05:01:21 PM 36.8039 -89.2350 280° West 414 476 38,000  Level Memphis Center
Sun 05:02:21 PM 36.8281 -89.3797 282° West 414 476 38,000  Level Memphis Center
Sun 05:03:21 PM 36.8581 -89.5167 285° West 414 476 38,000  Level Memphis Center
Sun 05:04:21 PM 36.8944 -89.6564 288° West 414 476 38,000  Level Memphis Center
Sun 05:05:21 PM 36.9264 -89.7939 286° West 419 482 38,000  Level Memphis Center
Sun 05:06:21 PM 36.9581 -89.9181 288° West 419 482 38,000  Level Memphis Center
Sun 05:07:21 PM 36.9919 -90.0583 287° West 419 482 38,000  Level Memphis Center
Sun 05:08:21 PM 37.0256 -90.1958 287° West 419 482 38,000  Level Memphis Center
Sun 05:09:21 PM 37.0589 -90.3361 287° West 419 482 38,000  Level Memphis Center
Sun 05:11:27 PM 37.1281 -90.6167 287° West 423 487 38,000  Level Kansas City Center
Sun 05:12:29 PM 37.1692 -90.7850 287° West 421 484 38,000  Level Kansas City Center
Sun 05:13:31 PM 37.2019 -90.9294 286° West 419 482 38,000  Level Kansas City Center
Sun 05:14:33 PM 37.2356 -91.0711 287° West 421 484 38,000  Level Kansas City Center
Sun 05:15:35 PM 37.2678 -91.2111 286° West 419 482 38,000  Level Kansas City Center
Sun 05:16:37 PM 37.3000 -91.3519 286° West 418 481 38,000  Level Kansas City Center
Sun 05:17:39 PM 37.3342 -91.4908 287° West 418 481 38,000  Level Kansas City Center
Sun 05:18:41 PM 37.3669 -91.6319 286° West 418 481 38,000  Level Kansas City Center
Sun 05:19:43 PM 37.3981 -91.7708 286° West 415 478 38,000  Level Kansas City Center
Sun 05:20:45 PM 37.4300 -91.9103 286° West 412 474 38,000  Level Kansas City Center
Sun 05:21:47 PM 37.4681 -92.0781 286° West 413 475 38,000  Level Kansas City Center
Sun 05:22:49 PM 37.5003 -92.2186 286° West 414 476 38,000  Level Kansas City Center
Sun 05:23:51 PM 37.5311 -92.3608 285° West 417 480 38,000  Level Kansas City Center
Sun 05:24:53 PM 37.5633 -92.5028 286° West 417 480 38,000  Level Kansas City Center
Sun 05:25:55 PM 37.5947 -92.6442 286° West 416 479 38,000  Level Kansas City Center
Sun 05:26:57 PM 37.6258 -92.7844 286° West 413 475 38,000  Level Kansas City Center
Sun 05:27:59 PM 37.6575 -92.9250 286° West 414 476 38,000  Level Kansas City Center
Sun 05:29:01 PM 37.6881 -93.0686 285° West 418 481 38,000  Level Kansas City Center
Sun 05:30:03 PM 37.7206 -93.2097 286° West 417 480 38,000  Level Kansas City Center
Sun 05:31:05 PM 37.7567 -93.3839 285° West 423 487 38,000  Level Kansas City Center
Sun 05:32:07 PM 37.7869 -93.5283 285° West 425 489 38,000  Level Kansas City Center
Sun 05:33:09 PM 37.8189 -93.6744 286° West 428 493 38,000  Level Kansas City Center
Sun 05:34:11 PM 37.8494 -93.8208 285° West 430 495 38,000  Level Kansas City Center
Sun 05:35:13 PM 37.8794 -93.9669 285° West 429 494 38,000  Level Kansas City Center
Sun 05:36:15 PM 37.9094 -94.1122 285° West 427 491 38,000  Level Kansas City Center
Sun 05:37:17 PM 37.9428 -94.2728 285° West 424 488 38,000  Level Kansas City Center
Sun 05:38:19 PM 37.9694 -94.4094 284° West 420 483 38,000  Level Kansas City Center
Sun 05:39:21 PM 38.0025 -94.5669 285° West 415 478 38,000  Level Kansas City Center
Sun 05:40:23 PM 38.0306 -94.7011 285° West 412 474 38,000  Level Kansas City Center
Sun 05:41:25 PM 38.0600 -94.8597 283° West 413 475 38,000  Level Kansas City Center
Sun 05:42:27 PM 38.0878 -94.9942 285° West 412 474 38,000  Level Kansas City Center
Sun 05:43:29 PM 38.1192 -95.1547 284° West 417 480 38,000  Level Kansas City Center
Sun 05:44:32 PM 38.1450 -95.2947 283° West 424 488 38,000  Level Kansas City Center
Sun 05:45:34 PM 38.1778 -95.4533 285° West 416 479 38,000  Level Kansas City Center
Sun 05:46:36 PM 38.2044 -95.5911 284° West 418 481 38,000  Level Kansas City Center
Sun 05:47:38 PM 38.2306 -95.7289 284° West 419 482 38,000  Level Kansas City Center
Sun 05:48:40 PM 38.2617 -95.8897 284° West 418 481 38,000  Level Kansas City Center
Sun 05:49:42 PM 38.2864 -96.0264 283° West 415 478 38,000  Level Kansas City Center
Sun 05:50:44 PM 38.3169 -96.1861 284° West 414 476 38,000  Level Kansas City Center
Sun 05:51:46 PM 38.3422 -96.3233 283° West 416 479 38,000  Level Kansas City Center
Sun 05:52:48 PM 38.3700 -96.4744 283° West 417 480 38,000  Level Kansas City Center
Sun 05:53:50 PM 38.3964 -96.6186 283° West 418 481 38,000  Level Kansas City Center
Sun 05:54:52 PM 38.4228 -96.7633 283° West 420 483 38,000  Level Kansas City Center
Sun 05:55:54 PM 38.4486 -96.9089 283° West 421 484 38,000  Level Kansas City Center
Sun 05:56:56 PM 38.4806 -97.0844 283° West 425 489 38,000  Level Kansas City Center
Sun 05:57:58 PM 38.5064 -97.2311 283° West 426 490 38,000  Level Kansas City Center
Sun 05:59:00 PM 38.5325 -97.3761 283° West 422 486 38,000  Level Kansas City Center
Sun 06:00:02 PM 38.5575 -97.5217 282° West 422 486 38,000  Level Kansas City Center
Sun 06:01:04 PM 38.5831 -97.6669 283° West 422 486 38,000  Level Kansas City Center
Sun 06:02:06 PM 38.6125 -97.8403 282° West 419 482 38,000  Level Kansas City Center
Sun 06:03:08 PM 38.6375 -97.9847 283° West 418 481 38,000  Level Kansas City Center
Sun 06:04:10 PM 38.6611 -98.1286 282° West 416 479 38,000  Level Kansas City Center
Sun 06:05:12 PM 38.6861 -98.2706 283° West 412 474 38,000  Level Kansas City Center
Sun 06:06:14 PM 38.7086 -98.4136 281° West 411 473 38,000  Level Kansas City Center
Sun 06:07:16 PM 38.7331 -98.5561 282° West 412 474 38,000  Level Kansas City Center
Sun 06:08:18 PM 38.7614 -98.7283 282° West 413 475 38,000  Level Kansas City Center
Sun 06:09:20 PM 38.7844 -98.8722 282° West 413 475 38,000  Level Kansas City Center
Sun 06:10:22 PM 38.8086 -99.0158 282° West 415 478 38,000  Level Kansas City Center
Sun 06:11:24 PM 38.8322 -99.1589 282° West 412 474 38,000  Level Kansas City Center
Sun 06:12:26 PM 38.8497 -99.3036 279° West 413 475 38,000  Level Kansas City Center
Sun 06:13:12 PM 38.8492 -99.4283 270° West 414 476 38,000  Level Denver Center
Sun 06:14:14 PM 38.8508 -99.5947 271° West 417 480 38,000  Level Denver Center
Sun 06:15:16 PM 38.8519 -99.7347 271° West 414 476 38,000  Level Denver Center
Sun 06:16:18 PM 38.8533 -99.8986 271° West 412 474 38,000  Level Denver Center
Sun 06:17:19 PM 38.8553 -100.0406 271° West 416 479 38,000  Level Denver Center
Sun 06:18:21 PM 38.8553 -100.1811 270° West 415 478 38,000  Level Denver Center
Sun 06:19:23 PM 38.8550 -100.3442 270° West 412 474 38,000  Level Denver Center
Sun 06:20:25 PM 38.8553 -100.4850 270° West 412 474 38,000  Level Denver Center
Sun 06:21:27 PM 38.8556 -100.6492 270° West 415 478 38,000  Level Denver Center
Sun 06:22:29 PM 38.8550 -100.7894 270° West 414 476 38,000  Level Denver Center
Sun 06:23:31 PM 38.8550 -100.9547 270° West 416 479 38,000 -387 Level Denver Center
Sun 06:24:33 PM 38.8544 -101.0944 270° West 412 474 37,200 -878 Descending Denver Center
Sun 06:25:34 PM 38.8536 -101.2606 270° West 417 480 36,200 -927 Descending Denver Center
Sun 06:26:36 PM 38.8519 -101.4031 269° West 420 483 35,300 -968 Descending Denver Center
Sun 06:27:38 PM 38.8517 -101.5725 270° West 427 491 34,200 -629 Descending Denver Center
Sun 06:28:40 PM 38.8500 -101.7153 269° West 421 484 34,000 -97 Descending Denver Center
Sun 06:29:42 PM 38.8486 -101.8811 269° West 420 483 34,000  Level Denver Center
Sun 06:30:44 PM 38.8469 -102.0208 269° West 415 478 34,000 -97 Level Denver Center
Sun 06:31:46 PM 38.8431 -102.1894 268° West 423 487 33,800 -581 Descending Denver Center
Sun 06:32:48 PM 38.8414 -102.3275 269° West 410 472 32,800 -878 Descending Denver Center
Sun 06:33:49 PM 38.8386 -102.4581 268° West 387 445 32,000 -390 Descending Denver Center
Sun 06:34:51 PM 38.8367 -102.6092 269° West 380 437 32,000  Level Denver Center
Sun 06:35:53 PM 38.8361 -102.7389 270° West 380 437 32,000  Level Denver Center
Sun 06:36:55 PM 38.8875 -102.8600 299° West 380 437 32,000  Level Denver Center
Sun 06:37:57 PM 38.9556 -103.0022 302° West 396 456 32,000 -244 Level Denver Center
Sun 06:38:58 PM 39.0153 -103.1253 302° West 403 464 31,500 -1,561 Descending Denver Center
Sun 06:40:00 PM 39.0739 -103.2503 301° West 404 465 28,800 -2,419 Descending Denver Center
Sun 06:41:02 PM 39.1344 -103.3750 302° West 408 470 26,500 -2,195 Descending Denver Center
Sun 06:42:03 PM 39.1908 -103.4956 301° West 393 452 24,300 -2,098 Descending Denver Center
Sun 06:43:05 PM 39.2444 -103.6103 301° West 373 429 22,200 -2,032 Descending Denver Center
Sun 06:44:07 PM 39.2964 -103.7208 301° West 362 417 20,100 -1,984 Descending Denver Center
Sun 06:45:09 PM 39.3456 -103.8275 301° West 348 400 18,100 -1,512 Descending Denver Center
Sun 06:46:10 PM 39.3956 -103.9433 299° West 333 383 17,000 -1,171 Descending Denver Center
Sun 06:47:12 PM 39.4211 -104.0422 289° West 302 348 15,700 -1,984 Descending Denver Center
Sun 06:48:14 PM 39.4700 -104.1617 298° West 350 403 12,900 -2,226 Descending Denver Center
Sun 06:49:16 PM 39.5011 -104.2822 289° West 353 406 11,100 -1,268 Descending Denver Center
Sun 06:50:17 PM 39.5264 -104.3953 286° West 333 383 10,300 -1,073 Descending Denver Center
Sun 06:51:19 PM 39.5864 -104.4733 315° West 287 330 8,900 -1,113 Descending Denver Center
Sun 06:52:21 PM 39.6456 -104.5344 322° Northwest 276 318 8,000 -871 Descending Denver Center
Sun 06:53:23 PM 39.6972 -104.5878 322° Northwest 245 282 7,100 -484 Descending Denver Center
Sun 06:54:25 PM 39.7456 -104.6386 321° Northwest 213 245 7,000 -390 Descending Denver Center
Sun 06:55:26 PM 39.7889 -104.6422 356° North 164 189 6,300 -732 Descending Denver Center
Sun 06:56:28 PM 39.8303 -104.6419 360° North 149 171 5,500 -774 Descending Denver Center
Sun 06:58:00 PM 39.8500 -104.6667 North  Level FlightAware Approximate
Sun 07:05:00 PM 39.8617 -104.6732 North  Level Estimated
Sun 07:06:00 PM 39.8617 -104.6732 North  Level Estimated
Sun 07:07:00 PM 39.8617 -104.6732 North  Level Estimated

Login

Don't have an account? Register now (free) for customized features, flight alerts, and more!